Time;durP1;ratioP1;P1;durP2;ratioP2;P2;SDS_P1;SDS_P2;PMS_P1;PMS_P2;Temp;Humidity;BMP_temperature;BMP_pressure;BME280_temperature;BME280_humidity;BME280_pressure;Samples;Min_cycle;Max_cycle;Signal;HPM_P1;HPM_P2
2022/08/22 00:00:10;;;;;;;1.43;0.90;;;20.80;88.30;;;;;;6120120;23;20428;-77
2022/08/22 00:02:46;;;;;;;1.47;0.90;;;20.80;88.40;;;;;;6126855;23;20454;-76
2022/08/22 00:05:28;;;;;;;1.47;0.90;;;20.80;88.60;;;;;;6119897;23;20468;-77
2022/08/22 00:08:04;;;;;;;1.47;0.93;;;20.70;89.20;;;;;;6128353;23;20450;-77
2022/08/22 00:10:42;;;;;;;1.47;0.90;;;20.60;88.70;;;;;;6118621;23;20409;-77
2022/08/22 00:13:14;;;;;;;1.43;0.90;;;20.60;88.50;;;;;;6119949;23;20421;-77
2022/08/22 00:15:45;;;;;;;1.47;0.90;;;20.60;89.60;;;;;;6120043;23;20442;-77
2022/08/22 00:18:18;;;;;;;1.47;0.90;;;20.50;89.50;;;;;;6105131;23;20492;-76
2022/08/22 00:20:52;;;;;;;1.43;0.90;;;20.50;90.10;;;;;;6122300;23;20418;-77
2022/08/22 00:23:27;;;;;;;1.47;0.90;;;20.40;90.10;;;;;;6106543;23;20437;-77
2022/08/22 00:26:01;;;;;;;1.47;0.90;;;20.40;90.10;;;;;;6107871;23;20797;-76
2022/08/22 00:28:35;;;;;;;1.43;1.00;;;20.30;90.90;;;;;;6140977;23;20500;-77
2022/08/22 00:31:10;;;;;;;1.47;0.90;;;20.20;90.80;;;;;;6121237;23;20897;-77
2022/08/22 00:33:45;;;;;;;1.47;0.90;;;20.20;90.60;;;;;;6121730;23;20496;-76
2022/08/22 00:36:23;;;;;;;1.50;0.90;;;20.20;91.20;;;;;;6111821;23;20451;-77
2022/08/22 00:38:58;;;;;;;1.40;0.90;;;20.10;91.00;;;;;;6136983;23;20410;-77
2022/08/22 00:42:07;;;;;;;1.47;0.90;;;20.10;92.00;;;;;;6121385;23;20436;-77
2022/08/22 00:44:57;;;;;;;1.50;0.90;;;20.00;92.40;;;;;;6040425;23;20531;-77
2022/08/22 00:47:45;;;;;;;1.50;1.00;;;20.00;91.70;;;;;;6126790;23;20960;-77
2022/08/22 00:50:42;;;;;;;1.47;0.90;;;19.90;92.30;;;;;;6130724;23;20414;-77
2022/08/22 00:53:35;;;;;;;1.50;0.90;;;19.90;92.10;;;;;;6117717;23;20476;-76
2022/08/22 00:56:18;;;;;;;1.47;0.90;;;19.80;92.20;;;;;;6106290;23;20453;-76
2022/08/22 00:59:08;;;;;;;1.50;1.00;;;19.80;92.50;;;;;;6137681;23;20410;-77
2022/08/22 01:01:41;;;;;;;1.50;1.00;;;19.70;92.40;;;;;;6121909;23;20705;-76
2022/08/22 01:04:34;;;;;;;1.50;0.90;;;19.70;92.10;;;;;;6121746;23;20528;-76
2022/08/22 01:07:16;;;;;;;1.40;0.90;;;19.70;93.40;;;;;;6125470;23;20499;-77
2022/08/22 01:09:57;;;;;;;1.50;0.97;;;19.60;93.20;;;;;;6124366;23;20940;-77
2022/08/22 01:12:43;;;;;;;1.50;0.90;;;19.60;93.20;;;;;;6124391;23;20697;-77
2022/08/22 01:15:15;;;;;;;1.40;0.90;;;19.60;93.90;;;;;;6107579;23;20717;-77
2022/08/22 01:17:59;;;;;;;1.43;0.90;;;19.60;94.10;;;;;;6122338;23;20528;-78
2022/08/22 01:20:59;;;;;;;1.50;0.90;;;19.50;93.90;;;;;;6120044;23;20524;-77
2022/08/22 01:24:12;;;;;;;1.50;0.90;;;19.50;94.10;;;;;;6104146;23;20434;-77
2022/08/22 01:27:07;;;;;;;1.50;0.90;;;19.50;93.70;;;;;;6115856;23;20452;-77
2022/08/22 01:30:00;;;;;;;1.47;0.90;;;19.40;93.80;;;;;;6127081;23;20430;-77
2022/08/22 01:33:05;;;;;;;1.47;0.90;;;19.40;94.00;;;;;;6120276;23;20931;-77
2022/08/22 01:36:08;;;;;;;1.47;0.90;;;19.30;94.70;;;;;;6120264;23;20885;-77
2022/08/22 01:39:10;;;;;;;1.43;0.90;;;19.30;94.20;;;;;;6104823;23;20605;-77
2022/08/22 01:42:15;;;;;;;1.50;1.00;;;19.30;94.60;;;;;;6117723;23;20863;-77
2022/08/22 01:45:10;;;;;;;1.50;0.90;;;19.30;94.70;;;;;;6082939;23;20978;-77
2022/08/22 01:47:44;;;;;;;1.40;0.90;;;19.20;94.20;;;;;;6127258;23;20488;-77
2022/08/22 01:50:20;;;;;;;1.43;0.90;;;19.20;94.30;;;;;;6117937;23;20416;-77
2022/08/22 01:52:53;;;;;;;1.50;1.00;;;19.20;94.90;;;;;;6128473;23;20456;-77
2022/08/22 01:55:26;;;;;;;1.50;0.97;;;19.20;94.90;;;;;;6119717;23;20500;-77
2022/08/22 01:57:56;;;;;;;1.47;0.90;;;19.10;94.80;;;;;;6120304;23;20481;-77
2022/08/22 02:00:25;;;;;;;1.50;0.90;;;19.10;94.20;;;;;;6120622;23;20420;-76
2022/08/22 02:03:04;;;;;;;1.47;0.90;;;19.10;95.30;;;;;;6128457;23;20475;-77
2022/08/22 02:05:37;;;;;;;1.50;0.90;;;19.00;94.90;;;;;;6129803;23;20815;-76
2022/08/22 02:08:19;;;;;;;1.47;1.00;;;19.00;95.50;;;;;;6128647;23;20480;-77
2022/08/22 02:10:57;;;;;;;1.43;0.90;;;19.00;94.90;;;;;;6120548;23;20406;-77
2022/08/22 02:13:34;;;;;;;1.50;0.90;;;18.90;95.60;;;;;;6120756;23;20785;-77
2022/08/22 02:16:09;;;;;;;1.50;0.90;;;18.90;95.40;;;;;;6108649;23;20448;-77
2022/08/22 02:19:04;;;;;;;1.47;0.90;;;18.80;96.40;;;;;;6137653;23;20416;-76
2022/08/22 02:21:43;;;;;;;1.40;0.90;;;18.80;96.20;;;;;;6114511;23;20452;-77
2022/08/22 02:24:23;;;;;;;1.47;0.90;;;18.80;96.10;;;;;;6141904;23;20487;-76
2022/08/22 02:27:04;;;;;;;1.43;0.90;;;18.80;97.00;;;;;;6119260;23;20955;-77
2022/08/22 02:29:38;;;;;;;1.43;0.90;;;18.80;96.50;;;;;;6119323;23;20545;-77
2022/08/22 02:32:16;;;;;;;1.40;0.90;;;18.80;96.20;;;;;;6120227;23;20452;-77
2022/08/22 02:34:48;;;;;;;1.40;0.97;;;18.80;95.80;;;;;;6135566;23;20592;-76
2022/08/22 02:37:20;;;;;;;1.50;0.90;;;18.70;95.70;;;;;;6122644;23;20472;-77
2022/08/22 02:39:55;;;;;;;1.47;0.90;;;18.70;96.70;;;;;;6124544;23;20410;-77
2022/08/22 02:42:33;;;;;;;1.40;0.90;;;18.70;97.30;;;;;;6116753;23;21029;-76
2022/08/22 02:45:18;;;;;;;1.50;1.00;;;18.70;97.60;;;;;;6117845;23;20953;-77
2022/08/22 02:47:51;;;;;;;1.43;1.00;;;18.70;96.50;;;;;;6128559;23;20448;-77
2022/08/22 02:50:23;;;;;;;1.47;0.90;;;18.70;97.50;;;;;;6120409;23;20476;-77
2022/08/22 02:52:58;;;;;;;1.50;0.90;;;18.60;97.20;;;;;;6128392;23;20448;-76
2022/08/22 02:55:41;;;;;;;1.50;0.90;;;18.60;97.60;;;;;;6119998;23;20801;-77
2022/08/22 02:58:15;;;;;;;1.47;0.90;;;18.60;96.90;;;;;;6119193;23;20422;-77
2022/08/22 03:00:48;;;;;;;1.50;1.00;;;18.50;97.00;;;;;;6120437;23;20406;-77
2022/08/22 03:03:21;;;;;;;1.40;0.90;;;18.50;96.10;;;;;;6103744;23;20465;-77
2022/08/22 03:05:59;;;;;;;1.50;0.90;;;18.50;96.40;;;;;;6105881;23;20787;-77
2022/08/22 03:08:31;;;;;;;1.43;0.90;;;18.50;96.90;;;;;;6139340;23;20402;-77
2022/08/22 03:11:08;;;;;;;1.50;0.90;;;18.50;96.70;;;;;;6107207;23;20440;-77
2022/08/22 03:13:53;;;;;;;1.50;0.90;;;18.40;97.30;;;;;;6138443;23;20416;-77
2022/08/22 03:16:28;;;;;;;1.50;1.00;;;18.40;97.50;;;;;;6110705;23;20472;-77
2022/08/22 03:19:03;;;;;;;1.50;1.00;;;18.40;97.10;;;;;;6134514;23;20406;-77
2022/08/22 03:21:35;;;;;;;1.43;0.90;;;18.30;97.80;;;;;;6113463;23;20452;-77
2022/08/22 03:24:09;;;;;;;1.50;0.90;;;18.40;98.20;;;;;;6133019;23;20739;-77
2022/08/22 03:26:44;;;;;;;1.50;0.90;;;18.30;98.00;;;;;;6114294;23;20457;-77
2022/08/22 03:29:18;;;;;;;1.50;0.90;;;18.30;98.20;;;;;;6131031;23;20440;-77
2022/08/22 03:32:05;;;;;;;1.50;0.90;;;18.30;98.20;;;;;;6116168;23;20527;-77
2022/08/22 03:34:33;;;;;;;1.50;1.00;;;18.30;98.20;;;;;;6127577;23;20438;-77
2022/08/22 03:37:06;;;;;;;1.50;0.90;;;18.30;98.20;;;;;;6119390;23;21195;-77
2022/08/22 03:39:51;;;;;;;1.43;0.90;;;18.30;98.20;;;;;;6125940;23;20404;-77
2022/08/22 03:42:48;;;;;;;1.50;0.90;;;18.30;98.20;;;;;;6120162;23;20410;-77
2022/08/22 03:45:42;;;;;;;1.47;0.90;;;18.30;98.20;;;;;;6104556;23;20454;-77
2022/08/22 03:48:40;;;;;;;1.47;0.90;;;18.30;98.20;;;;;;6127850;23;20446;-77
2022/08/22 03:51:28;;;;;;;1.43;0.90;;;18.30;98.20;;;;;;6082857;23;20863;-77
2022/08/22 03:54:36;;;;;;;1.50;0.93;;;18.40;98.20;;;;;;6121736;23;20755;-77
2022/08/22 03:57:45;;;;;;;1.40;0.93;;;18.40;98.20;;;;;;6101442;23;20476;-77
2022/08/22 04:00:42;;;;;;;1.50;0.93;;;18.40;98.20;;;;;;6068403;23;20425;-77
2022/08/22 04:03:48;;;;;;;1.50;0.90;;;18.40;98.20;;;;;;6121851;23;20417;-77
2022/08/22 04:06:34;;;;;;;1.50;0.90;;;18.40;98.20;;;;;;6097284;23;20775;-77
2022/08/22 04:09:47;;;;;;;1.50;1.20;;;18.40;98.20;;;;;;6134576;23;20433;-76
2022/08/22 04:12:51;;;;;;;1.43;0.90;;;18.40;98.20;;;;;;6123292;23;20519;-77
2022/08/22 04:15:40;;;;;;;1.43;0.90;;;18.40;98.20;;;;;;6131442;23;20443;-77
2022/08/22 04:18:55;;;;;;;1.50;1.00;;;18.40;98.20;;;;;;6129963;23;20454;-77
2022/08/22 04:21:50;;;;;;;1.47;0.90;;;18.40;98.20;;;;;;6031279;23;20424;-77
2022/08/22 04:24:47;;;;;;;1.50;0.90;;;18.40;98.20;;;;;;6108871;23;20481;-76
2022/08/22 04:27:21;;;;;;;1.47;0.90;;;18.40;98.20;;;;;;6115519;23;20448;-76
2022/08/22 04:29:55;;;;;;;1.47;0.90;;;18.30;98.20;;;;;;6135449;23;20513;-76
2022/08/22 04:32:30;;;;;;;1.47;0.90;;;18.30;98.20;;;;;;6125315;23;20944;-76
2022/08/22 04:35:03;;;;;;;1.47;0.90;;;18.30;98.20;;;;;;6125608;23;20449;-77
2022/08/22 04:37:36;;;;;;;1.43;0.90;;;18.30;98.20;;;;;;6128121;23;20453;-77
2022/08/22 04:40:10;;;;;;;1.47;0.90;;;18.30;98.20;;;;;;6123568;23;20408;-77
2022/08/22 04:42:41;;;;;;;1.50;1.00;;;18.30;98.20;;;;;;6127450;23;20455;-77
2022/08/22 04:45:14;;;;;;;1.50;0.90;;;18.30;98.20;;;;;;6122360;23;21004;-77
2022/08/22 04:47:49;;;;;;;1.43;0.90;;;18.30;98.20;;;;;;6122003;23;20410;-76
2022/08/22 04:50:22;;;;;;;1.50;1.00;;;18.30;98.20;;;;;;6120467;23;20528;-77
2022/08/22 04:53:04;;;;;;;1.50;1.00;;;18.30;98.20;;;;;;6129964;23;20775;-78
2022/08/22 04:55:39;;;;;;;1.47;0.90;;;18.40;98.20;;;;;;6120640;23;20476;-78
2022/08/22 04:58:22;;;;;;;1.50;0.97;;;18.40;98.20;;;;;;6128596;23;20974;-78
2022/08/22 05:00:56;;;;;;;1.43;0.90;;;18.40;98.20;;;;;;6108902;23;20728;-78
2022/08/22 05:03:28;;;;;;;1.50;0.90;;;18.40;98.20;;;;;;6141880;23;20413;-78
2022/08/22 05:05:59;;;;;;;1.50;0.90;;;18.50;98.20;;;;;;6108687;23;20831;-77
2022/08/22 05:08:32;;;;;;;1.47;0.90;;;18.50;98.20;;;;;;6139696;23;20421;-77
2022/08/22 05:11:03;;;;;;;1.43;0.90;;;18.60;98.20;;;;;;6121145;23;20797;-77
2022/08/22 05:13:34;;;;;;;1.50;1.00;;;18.60;98.20;;;;;;6121361;23;20473;-77
2022/08/22 05:16:06;;;;;;;1.43;0.90;;;18.60;98.20;;;;;;6130152;23;20456;-78
2022/08/22 05:18:39;;;;;;;1.47;0.90;;;18.70;98.20;;;;;;6117573;23;20488;-77
2022/08/22 05:21:09;;;;;;;1.50;1.00;;;18.70;98.20;;;;;;6111064;23;20426;-77
2022/08/22 05:23:42;;;;;;;1.47;0.90;;;18.70;98.20;;;;;;6141122;23;20480;-77
2022/08/22 05:26:11;;;;;;;1.43;0.90;;;18.70;98.20;;;;;;6120928;23;20448;-78
2022/08/22 05:28:42;;;;;;;1.83;1.30;;;18.80;98.20;;;;;;6138678;23;20445;-78
2022/08/22 05:31:13;;;;;;;1.50;0.90;;;18.80;98.20;;;;;;6118820;23;20472;-77
2022/08/22 05:33:45;;;;;;;1.47;0.90;;;18.80;98.20;;;;;;6149226;23;20430;-77
2022/08/22 05:36:17;;;;;;;1.40;0.90;;;18.80;98.20;;;;;;6111023;23;20496;-77
2022/08/22 05:38:49;;;;;;;1.47;0.90;;;18.80;98.20;;;;;;6138047;23;20406;-77
2022/08/22 05:41:22;;;;;;;1.50;0.90;;;18.80;98.20;;;;;;6116577;23;20514;-77
2022/08/22 05:43:50;;;;;;;1.47;0.90;;;18.80;98.20;;;;;;6139706;23;20426;-78
2022/08/22 05:46:30;;;;;;;1.43;0.90;;;18.80;98.20;;;;;;6111123;23;20449;-78
2022/08/22 05:49:02;;;;;;;1.43;0.90;;;18.90;98.20;;;;;;6130108;23;20520;-78
2022/08/22 05:51:38;;;;;;;1.47;0.97;;;18.90;98.20;;;;;;6114309;23;20953;-77
2022/08/22 05:54:14;;;;;;;1.50;0.97;;;18.90;98.20;;;;;;6133030;23;20405;-78
2022/08/22 05:56:43;;;;;;;1.50;0.90;;;18.90;98.20;;;;;;6120430;23;20406;-77
2022/08/22 05:59:21;;;;;;;1.47;0.97;;;18.90;98.20;;;;;;6120698;23;20426;-77
2022/08/22 06:02:00;;;;;;;1.47;0.90;;;19.00;98.20;;;;;;6131777;23;20414;-78
2022/08/22 06:04:35;;;;;;;1.40;0.90;;;19.10;98.20;;;;;;6120816;23;20529;-77
2022/08/22 06:07:07;;;;;;;1.50;1.00;;;19.20;98.20;;;;;;6120112;23;20770;-78
2022/08/22 06:09:54;;;;;;;1.47;1.00;;;19.30;98.20;;;;;;6137802;23;20921;-78
2022/08/22 06:12:26;;;;;;;1.50;0.90;;;19.40;98.20;;;;;;6124591;23;20449;-77
2022/08/22 06:15:02;;;;;;;1.50;1.00;;;19.50;98.20;;;;;;6126068;23;20442;-78
2022/08/22 06:17:34;;;;;;;1.47;0.90;;;19.60;98.20;;;;;;6126589;23;20807;-78
2022/08/22 06:20:08;;;;;;;1.50;0.90;;;19.70;98.20;;;;;;6121418;23;20761;-78
2022/08/22 06:22:40;;;;;;;1.47;0.90;;;19.70;98.20;;;;;;6126462;23;20573;-78
2022/08/22 06:25:12;;;;;;;1.43;0.90;;;19.80;98.20;;;;;;6122249;23;20536;-80
2022/08/22 06:27:40;;;;;;;1.47;0.90;;;19.90;98.20;;;;;;6127573;23;20452;-78
2022/08/22 06:30:12;;;;;;;1.43;0.90;;;19.90;98.10;;;;;;6120926;23;20825;-77
2022/08/22 06:32:44;;;;;;;1.47;1.00;;;20.00;97.90;;;;;;6127724;23;20449;-78
2022/08/22 06:35:18;;;;;;;1.50;0.90;;;20.10;97.80;;;;;;6119155;23;20493;-78
2022/08/22 06:37:48;;;;;;;1.47;0.90;;;20.10;98.20;;;;;;6130885;23;20619;-80
2022/08/22 06:40:17;;;;;;;1.50;0.90;;;20.20;97.70;;;;;;6130606;23;20422;-79
2022/08/22 06:42:50;;;;;;;1.50;0.90;;;20.40;97.50;;;;;;6120578;23;20421;-79
2022/08/22 06:45:22;;;;;;;1.43;0.90;;;20.50;97.60;;;;;;6120449;23;20442;-78
2022/08/22 06:47:54;;;;;;;1.50;1.00;;;20.70;97.00;;;;;;6131207;23;20459;-79
2022/08/22 06:50:30;;;;;;;1.50;0.90;;;20.90;96.30;;;;;;6122131;23;20844;-79
2022/08/22 06:53:04;;;;;;;1.50;0.90;;;21.00;96.50;;;;;;6129760;23;20448;-78
2022/08/22 06:55:32;;;;;;;1.50;0.90;;;21.30;95.90;;;;;;6120535;23;20441;-79
2022/08/22 06:58:03;;;;;;;1.50;0.90;;;21.70;94.30;;;;;;6129274;23;20543;-80
2022/08/22 07:00:31;;;;;;;1.50;0.90;;;22.00;94.10;;;;;;6132156;23;20442;-78
2022/08/22 07:03:05;;;;;;;1.50;0.90;;;22.30;93.00;;;;;;6130668;23;20452;-79
2022/08/22 07:05:40;;;;;;;1.50;0.90;;;22.50;92.70;;;;;;6122123;23;20532;-77
2022/08/22 07:08:10;;;;;;;1.50;0.90;;;22.80;91.60;;;;;;6127035;23;20889;-78
2022/08/22 07:10:41;;;;;;;1.50;0.90;;;23.00;91.00;;;;;;6121197;23;20437;-78
2022/08/22 07:13:15;;;;;;;1.50;0.90;;;23.20;89.70;;;;;;6129503;23;20464;-77
2022/08/22 07:15:43;;;;;;;1.50;0.90;;;23.50;89.70;;;;;;6119646;23;20448;-78
2022/08/22 07:18:17;;;;;;;1.50;0.90;;;23.70;88.00;;;;;;6116966;23;20933;-79
2022/08/22 07:20:51;;;;;;;1.50;0.90;;;24.00;87.60;;;;;;6121037;23;20440;-78
2022/08/22 07:23:30;;;;;;;1.50;0.90;;;24.10;86.80;;;;;;6104617;23;20521;-79
2022/08/22 07:26:07;;;;;;;1.50;0.90;;;24.30;86.40;;;;;;6107895;23;20453;-80
2022/08/22 07:28:40;;;;;;;1.50;0.90;;;24.40;86.00;;;;;;6137604;23;20963;-79
2022/08/22 07:31:16;;;;;;;1.47;0.90;;;24.70;84.60;;;;;;6120292;23;20444;-79
2022/08/22 07:33:47;;;;;;;1.47;0.87;;;24.90;85.40;;;;;;6120624;23;20783;-78
2022/08/22 07:36:23;;;;;;;1.50;0.80;;;25.20;85.10;;;;;;6119736;23;20403;-79
2022/08/22 07:39:18;;;;;;;1.50;0.80;;;25.50;83.90;;;;;;6123869;23;20414;-78
2022/08/22 07:42:06;;;;;;;1.47;0.90;;;25.80;83.40;;;;;;6116260;23;20453;-77
2022/08/22 07:44:43;;;;;;;1.50;0.90;;;26.10;80.90;;;;;;6127319;23;20688;-78
2022/08/22 07:47:14;;;;;;;1.47;0.80;;;26.30;80.40;;;;;;6124861;23;20494;-78
2022/08/22 07:49:49;;;;;;;1.50;0.90;;;26.40;81.10;;;;;;6124805;23;20413;-79
2022/08/22 07:52:18;;;;;;;1.47;0.90;;;26.50;79.40;;;;;;6116734;23;20452;-78
2022/08/22 07:54:50;;;;;;;1.50;0.90;;;26.70;78.70;;;;;;6120553;23;20446;-79
2022/08/22 07:57:24;;;;;;;1.70;1.43;;;26.70;78.10;;;;;;6117876;23;20500;-77
2022/08/22 07:59:54;;;;;;;1.70;1.30;;;26.70;78.40;;;;;;6118260;23;20771;-78
2022/08/22 08:02:23;;;;;;;1.50;0.80;;;26.80;78.80;;;;;;6119243;23;20410;-79
2022/08/22 08:04:54;;;;;;;1.50;0.80;;;27.00;77.90;;;;;;6128865;23;20545;-78
2022/08/22 08:07:25;;;;;;;1.47;0.80;;;27.10;77.20;;;;;;6122566;23;20479;-78
2022/08/22 08:09:56;;;;;;;1.40;0.90;;;27.20;77.00;;;;;;6122465;23;20410;-79
2022/08/22 08:12:35;;;;;;;1.40;0.80;;;27.30;76.10;;;;;;6123961;23;20452;-79
2022/08/22 08:15:06;;;;;;;1.50;0.80;;;27.40;76.30;;;;;;6122244;23;20460;-78
2022/08/22 08:17:35;;;;;;;1.40;0.80;;;27.50;75.30;;;;;;6118104;23;20745;-78
2022/08/22 08:20:06;;;;;;;1.47;0.90;;;27.40;75.80;;;;;;6116522;23;20421;-78
2022/08/22 08:22:37;;;;;;;1.47;0.80;;;27.60;74.90;;;;;;6124685;23;20557;-77
2022/08/22 08:25:07;;;;;;;1.50;0.80;;;27.50;72.30;;;;;;6121978;23;20445;-78
2022/08/22 08:30:26;;;;;;;1.50;0.80;;;27.20;74.10;;;;;;6118871;23;20496;-76
2022/08/22 08:32:58;;;;;;;1.43;0.80;;;27.20;72.70;;;;;;6120365;23;20417;-80
2022/08/22 08:35:30;;;;;;;1.50;0.90;;;27.40;71.50;;;;;;6120051;23;20452;-79
2022/08/22 08:38:03;;;;;;;1.40;0.80;;;27.60;70.90;;;;;;6129102;23;20444;-79
2022/08/22 08:41:01;;;;;;;1.43;0.80;;;27.90;71.80;;;;;;6123824;23;20460;-79
2022/08/22 08:43:40;;;;;;;1.47;0.80;;;28.00;71.30;;;;;;6084714;23;20461;-78
2022/08/22 08:46:39;;;;;;;1.50;1.00;;;28.20;71.30;;;;;;6120351;23;20440;-78
2022/08/22 08:49:25;;;;;;;1.47;0.80;;;27.90;70.90;;;;;;6145031;23;20460;-78
2022/08/22 08:52:10;;;;;;;1.50;0.80;;;27.80;70.40;;;;;;6121357;23;20784;-78
2022/08/22 08:54:54;;;;;;;1.80;1.00;;;27.80;71.30;;;;;;6139392;23;20844;-78
2022/08/22 08:57:43;;;;;;;1.40;0.80;;;28.10;69.80;;;;;;6127797;23;20790;-79
2022/08/22 09:00:17;;;;;;;1.47;0.80;;;28.30;69.90;;;;;;6131928;23;20440;-80
2022/08/22 09:03:01;;;;;;;1.43;0.90;;;28.60;68.20;;;;;;6129620;23;20809;-78
2022/08/22 09:06:04;;;;;;;1.40;0.87;;;28.80;68.40;;;;;;6124523;23;20441;-78
2022/08/22 09:08:59;;;;;;;1.43;0.90;;;28.90;66.90;;;;;;6106626;23;20754;-78
2022/08/22 09:12:03;;;;;;;1.43;0.80;;;29.10;66.70;;;;;;6124062;23;20486;-79
2022/08/22 09:14:58;;;;;;;1.43;0.80;;;29.10;65.50;;;;;;6134672;23;20452;-78
2022/08/22 09:17:44;;;;;;;1.47;0.80;;;29.20;65.70;;;;;;6111660;23;20906;-78
2022/08/22 09:20:45;;;;;;;1.47;0.80;;;29.30;65.30;;;;;;6124413;23;20425;-80
2022/08/22 09:24:00;;;;;;;1.47;0.80;;;29.40;64.40;;;;;;6100864;23;20818;-78
2022/08/22 09:26:36;;;;;;;1.40;0.80;;;29.60;64.70;;;;;;6115281;23;20447;-80
2022/08/22 09:29:20;;;;;;;1.47;0.80;;;30.00;65.00;;;;;;6132232;23;20409;-78
2022/08/22 09:31:59;;;;;;;1.40;0.80;;;30.30;64.60;;;;;;6120888;23;20509;-80
2022/08/22 09:34:32;;;;;;;1.43;0.80;;;30.20;61.30;;;;;;6129735;23;20445;-78
2022/08/22 09:37:19;;;;;;;1.43;0.80;;;30.00;61.70;;;;;;6128338;23;20475;-79
2022/08/22 09:40:44;;;;;;;1.47;0.80;;;30.00;63.30;;;;;;6132999;23;20405;-79
2022/08/22 09:43:20;;;;;;;1.47;0.80;;;30.00;62.60;;;;;;6109501;23;20550;-80
2022/08/22 09:45:53;;;;;;;1.43;0.80;;;30.10;63.70;;;;;;6114601;23;20841;-81
2022/08/22 09:48:48;;;;;;;1.47;0.80;;;30.20;62.70;;;;;;6146063;23;20429;-79
2022/08/22 09:51:28;;;;;;;1.43;0.80;;;30.30;63.00;;;;;;6122421;23;20441;-79
2022/08/22 09:54:16;;;;;;;1.43;0.80;;;30.20;61.70;;;;;;6146593;23;20397;-82
2022/08/22 09:56:55;;;;;;;1.43;0.80;;;30.30;63.90;;;;;;6113904;23;20455;-79
2022/08/22 09:59:30;;;;;;;1.47;0.80;;;30.60;62.00;;;;;;6130993;23;20409;-79
2022/08/22 10:02:05;;;;;;;1.43;0.80;;;31.00;63.60;;;;;;6119426;23;20540;-79
2022/08/22 10:04:46;;;;;;;1.47;0.80;;;31.50;60.90;;;;;;6128083;23;20445;-80
2022/08/22 10:07:33;;;;;;;1.43;0.80;;;32.00;59.50;;;;;;6124415;23;20455;-79
2022/08/22 10:10:10;;;;;;;1.40;0.80;;;32.30;58.90;;;;;;6118559;23;20492;-79
2022/08/22 10:12:49;;;;;;;1.47;0.80;;;32.50;58.70;;;;;;6121827;23;20967;-78
2022/08/22 10:15:22;;;;;;;1.47;0.80;;;32.60;59.80;;;;;;6115623;23;20445;-78
2022/08/22 10:18:07;;;;;;;1.47;0.80;;;32.60;58.20;;;;;;6125383;23;20531;-81
2022/08/22 10:20:49;;;;;;;1.43;0.80;;;32.60;59.50;;;;;;6116848;23;20417;-80
2022/08/22 10:23:22;;;;;;;1.40;0.80;;;32.70;58.80;;;;;;6102713;23;20492;-79
2022/08/22 10:25:54;;;;;;;1.47;0.80;;;32.70;59.50;;;;;;6102849;23;20696;-79
2022/08/22 10:28:36;;;;;;;1.40;0.80;;;32.70;59.00;;;;;;6147786;23;20158;-80
2022/08/22 10:31:21;;;;;;;1.43;0.80;;;32.70;59.80;;;;;;6105654;23;20440;-79
2022/08/22 10:33:59;;;;;;;1.43;0.80;;;32.50;58.20;;;;;;6133399;23;20453;-79
2022/08/22 10:37:02;;;;;;;1.43;0.80;;;32.40;59.70;;;;;;6095627;23;20447;-82
2022/08/22 10:39:43;;;;;;;1.43;0.80;;;32.20;58.70;;;;;;6116663;23;21014;-81
2022/08/22 10:42:24;;;;;;;1.40;0.80;;;31.80;59.40;;;;;;6122045;23;20978;-79
2022/08/22 10:45:04;;;;;;;1.50;0.80;;;31.70;58.60;;;;;;6120474;23;20292;-78
2022/08/22 10:47:39;;;;;;;1.43;0.80;;;31.60;58.80;;;;;;6121490;23;20534;-79
2022/08/22 10:50:16;;;;;;;1.40;0.80;;;31.60;60.00;;;;;;6117910;23;20408;-81
2022/08/22 10:52:49;;;;;;;1.40;0.80;;;31.70;60.20;;;;;;6123677;23;20452;-79
2022/08/22 10:55:23;;;;;;;1.47;0.80;;;31.70;59.30;;;;;;6116762;23;20476;-80
2022/08/22 10:58:03;;;;;;;1.40;0.80;;;31.70;59.40;;;;;;6125527;23;20721;-79
2022/08/22 11:00:45;;;;;;;1.43;0.80;;;31.50;59.20;;;;;;6124352;23;20452;-75
2022/08/22 11:03:16;;;;;;;1.47;0.80;;;31.40;59.90;;;;;;6098178;23;20433;-76
2022/08/22 11:05:44;;;;;;;1.40;0.80;;;31.30;59.90;;;;;;6115409;23;20746;-75
2022/08/22 11:08:35;;;;;;;1.43;0.80;;;31.40;59.80;;;;;;6097829;23;20197;-78
2022/08/22 11:11:17;;;;;;;1.47;0.80;;;31.50;59.70;;;;;;6103243;23;20449;-78
2022/08/22 11:13:58;;;;;;;1.50;0.80;;;31.60;59.10;;;;;;6130842;23;20410;-78
2022/08/22 11:16:41;;;;;;;1.40;0.80;;;31.60;59.60;;;;;;6108950;23;20444;-79
2022/08/22 11:19:30;;;;;;;1.40;0.80;;;31.70;59.70;;;;;;6125989;23;20643;-77
2022/08/22 11:22:06;;;;;;;1.40;0.80;;;31.70;58.00;;;;;;6119203;23;20967;-80
2022/08/22 11:25:16;;;;;;;1.40;0.80;;;31.90;59.60;;;;;;6123884;23;20452;-79
2022/08/22 11:28:01;;;;;;;1.50;0.90;;;32.10;57.60;;;;;;6124314;23;20607;-79
2022/08/22 11:30:35;;;;;;;1.43;0.80;;;32.20;58.10;;;;;;6116959;23;20252;-80
2022/08/22 11:33:25;;;;;;;1.40;0.80;;;32.30;58.90;;;;;;6124171;23;20252;-80
2022/08/22 11:36:02;;;;;;;1.40;0.80;;;32.40;58.70;;;;;;6098469;23;20449;-79
2022/08/22 11:38:38;;;;;;;1.40;0.80;;;32.40;58.30;;;;;;6135464;23;20165;-80
2022/08/22 11:41:12;;;;;;;1.40;0.80;;;32.40;58.50;;;;;;6104422;23;20956;-79
2022/08/22 11:43:53;;;;;;;1.40;0.80;;;32.50;58.90;;;;;;6130017;23;20174;-79
2022/08/22 11:46:28;;;;;;;1.40;0.80;;;32.60;58.90;;;;;;6115002;23;20212;-79
2022/08/22 11:49:28;;;;;;;1.40;0.80;;;32.50;58.80;;;;;;6135152;23;20184;-78
2022/08/22 11:52:23;;;;;;;1.40;0.80;;;32.40;58.00;;;;;;6101951;23;20212;-79
2022/08/22 11:55:21;;;;;;;1.40;0.80;;;32.40;59.30;;;;;;6137096;23;20437;-78
2022/08/22 11:57:52;;;;;;;1.43;0.80;;;32.50;57.20;;;;;;6134109;23;20462;-80
2022/08/22 12:00:47;;;;;;;1.40;0.80;;;32.60;58.80;;;;;;6133262;23;20178;-80
2022/08/22 12:03:56;;;;;;;1.40;0.80;;;32.60;57.30;;;;;;6108127;23;20769;-80
2022/08/22 12:07:03;;;;;;;1.40;0.80;;;32.70;58.80;;;;;;6072119;23;20593;-78
2022/08/22 12:09:41;;;;;;;1.40;0.80;;;32.60;56.50;;;;;;6140584;23;20182;-79
2022/08/22 12:12:30;;;;;;;1.40;0.80;;;32.60;57.40;;;;;;6127514;23;20208;-79
2022/08/22 12:15:22;;;;;;;;;;;;;;;;;;;;;
2022/08/22 12:18:32;;;;;;;1.40;0.80;;;32.80;56.30;;;;;;6126927;23;20455;-81
2022/08/22 12:21:39;;;;;;;1.40;0.80;;;33.10;57.20;;;;;;6109584;23;20424;-81
2022/08/22 12:24:31;;;;;;;1.40;0.80;;;33.30;56.10;;;;;;6149519;23;20215;-78
2022/08/22 12:27:19;;;;;;;1.40;0.80;;;33.30;56.90;;;;;;6113706;23;20216;-78
2022/08/22 12:30:05;;;;;;;1.40;0.80;;;33.30;56.20;;;;;;6120157;23;20409;-78
2022/08/22 12:33:10;;;;;;;1.40;0.80;;;32.60;55.60;;;;;;6122923;23;20595;-79
2022/08/22 12:35:49;;;;;;;1.40;0.80;;;32.40;57.90;;;;;;6119220;23;20208;-78
2022/08/22 12:38:32;;;;;;;1.40;0.90;;;32.50;58.70;;;;;;6100407;23;20212;-78
2022/08/22 12:41:38;;;;;;;1.40;0.80;;;32.50;57.40;;;;;;6110888;23;20278;-79
2022/08/22 12:44:22;;;;;;;1.40;0.80;;;32.30;56.80;;;;;;6101946;23;20429;-79
2022/08/22 12:47:09;;;;;;;1.40;0.80;;;32.30;58.30;;;;;;6111927;23;20212;-79
2022/08/22 12:49:57;;;;;;;1.40;0.80;;;32.20;57.50;;;;;;6121390;23;20792;-79
2022/08/22 12:52:42;;;;;;;1.40;0.80;;;32.10;58.00;;;;;;6120276;23;20471;-81
2022/08/22 12:55:36;;;;;;;1.40;0.80;;;32.20;58.70;;;;;;6111055;23;20867;-80
2022/08/22 12:58:12;;;;;;;1.47;0.80;;;32.10;58.10;;;;;;6123223;23;20459;-79
2022/08/22 13:00:43;;;;;;;1.40;0.90;;;32.00;57.30;;;;;;6116093;23;20811;-79
2022/08/22 13:03:20;;;;;;;1.40;0.80;;;32.00;58.70;;;;;;6121855;23;20446;-79
2022/08/22 13:05:48;;;;;;;1.40;0.80;;;32.00;59.30;;;;;;6108497;23;20528;-80
2022/08/22 13:08:30;;;;;;;1.43;0.80;;;32.10;58.30;;;;;;6138767;23;21145;-80
2022/08/22 13:11:01;;;;;;;1.40;0.80;;;32.20;57.60;;;;;;6104470;23;20472;-80
2022/08/22 13:13:35;;;;;;;1.40;0.80;;;32.20;58.40;;;;;;6145817;23;20783;-79
2022/08/22 13:16:06;;;;;;;1.40;0.80;;;32.20;57.80;;;;;;6104989;23;20945;-80
2022/08/22 13:18:38;;;;;;;1.40;0.80;;;32.20;58.80;;;;;;6134801;23;20556;-80
2022/08/22 13:21:12;;;;;;;1.40;0.80;;;32.20;57.40;;;;;;6107185;23;20658;-80
2022/08/22 13:23:47;;;;;;;1.40;0.80;;;32.20;58.40;;;;;;6140505;23;20406;-81
2022/08/22 13:26:17;;;;;;;1.40;0.80;;;32.30;58.40;;;;;;6106258;23;20454;-80
2022/08/22 13:28:47;;;;;;;1.40;0.80;;;32.40;58.50;;;;;;6131899;23;20432;-79
2022/08/22 13:31:24;;;;;;;1.40;0.80;;;32.30;57.70;;;;;;6106827;23;20535;-79
2022/08/22 13:33:57;;;;;;;1.40;0.80;;;32.40;58.70;;;;;;6132105;23;20405;-82
2022/08/22 13:36:25;;;;;;;1.40;0.80;;;32.40;57.60;;;;;;6109115;23;20452;-80
2022/08/22 13:38:58;;;;;;;1.47;0.90;;;32.50;57.60;;;;;;6132693;23;20429;-79
2022/08/22 13:41:29;;;;;;;1.40;0.80;;;32.40;57.40;;;;;;6110239;23;20825;-79
2022/08/22 13:44:17;;;;;;;1.40;0.80;;;32.40;57.30;;;;;;6127308;23;20421;-80
2022/08/22 13:46:54;;;;;;;1.40;0.80;;;32.40;57.90;;;;;;6110052;23;20483;-80
2022/08/22 13:49:48;;;;;;;1.40;0.80;;;32.40;57.10;;;;;;6136486;23;20839;-80
2022/08/22 13:52:46;;;;;;;;;;;;;;;;;;;;;
2022/08/22 13:55:20;;;;;;;1.40;0.80;;;32.60;58.20;;;;;;6131244;23;20932;-79
2022/08/22 13:57:51;;;;;;;1.40;0.80;;;32.60;57.70;;;;;;6121898;23;20503;-79